createdAt,value
2022-08-31T00:02:24.142Z,6.63
2022-08-31T00:04:54.571Z,6.17
2022-08-31T00:07:22.896Z,7.23
2022-08-31T00:09:51.271Z,6.80
2022-08-31T00:12:19.475Z,7.53
2022-08-31T00:14:49.037Z,6.27
2022-08-31T00:17:17.517Z,6.53
2022-08-31T00:19:45.468Z,7.27
2022-08-31T00:22:14.809Z,6.73
2022-08-31T00:24:42.835Z,7.07
2022-08-31T00:27:10.872Z,7.00
2022-08-31T00:29:38.852Z,6.93
2022-08-31T00:32:07.142Z,7.17
2022-08-31T00:34:35.217Z,6.70
2022-08-31T00:37:04.409Z,7.60
2022-08-31T00:39:34.940Z,7.33
2022-08-31T00:42:05.557Z,7.27
2022-08-31T00:44:33.764Z,6.73
2022-08-31T00:47:01.869Z,7.27
2022-08-31T00:49:31.946Z,7.80
2022-08-31T00:52:03.596Z,6.90
2022-08-31T00:54:35.091Z,9.03
2022-08-31T00:57:03.518Z,7.17
2022-08-31T00:59:31.604Z,7.23
2022-08-31T01:01:59.880Z,7.83
2022-08-31T01:04:28.172Z,7.30
2022-08-31T01:06:56.208Z,6.77
2022-08-31T01:09:25.273Z,7.73
2022-08-31T01:11:54.873Z,6.93
2022-08-31T01:14:22.959Z,8.20
2022-08-31T01:16:53.136Z,7.97
2022-08-31T01:19:32.626Z,7.07
2022-08-31T01:22:05.339Z,7.93
2022-08-31T01:24:35.319Z,7.33
2022-08-31T01:27:04.859Z,7.87
2022-08-31T01:29:33.363Z,8.77
2022-08-31T01:32:01.931Z,8.77
2022-08-31T01:34:30.095Z,9.97
2022-08-31T01:36:58.292Z,9.27
2022-08-31T01:39:26.392Z,9.43
2022-08-31T01:41:55.948Z,9.37
2022-08-31T01:44:26.464Z,10.53
2022-08-31T01:46:55.411Z,12.17
2022-08-31T01:49:25.091Z,12.50
2022-08-31T01:51:54.649Z,11.77
2022-08-31T01:54:25.050Z,13.87
2022-08-31T01:56:53.263Z,12.57
2022-08-31T01:59:31.568Z,12.40
2022-08-31T02:02:06.455Z,12.50
2022-08-31T02:04:34.828Z,29.67
2022-08-31T02:07:02.891Z,28.07
2022-08-31T02:09:33.698Z,28.13
2022-08-31T02:12:01.731Z,25.13
2022-08-31T02:14:31.237Z,26.03
2022-08-31T02:17:01.730Z,25.73
2022-08-31T02:19:31.846Z,27.47
2022-08-31T02:22:00.410Z,25.27
2022-08-31T02:24:30.062Z,25.23
2022-08-31T02:26:58.199Z,26.33
2022-08-31T02:29:27.377Z,24.37
2022-08-31T02:31:57.005Z,26.87
2022-08-31T02:34:25.897Z,25.47
2022-08-31T02:36:53.912Z,27.13
2022-08-31T02:39:22.220Z,25.97
2022-08-31T02:41:50.262Z,22.73
2022-08-31T02:44:18.374Z,21.00
2022-08-31T02:46:48.576Z,19.10
2022-08-31T02:49:32.906Z,18.83
2022-08-31T02:52:01.519Z,18.97
2022-08-31T02:54:29.586Z,18.33
2022-08-31T02:56:57.707Z,17.73
2022-08-31T02:59:25.788Z,17.93
2022-08-31T03:01:54.227Z,16.20
2022-08-31T03:04:22.513Z,15.50
2022-08-31T03:06:51.941Z,17.40
2022-08-31T03:09:20.024Z,16.13
2022-08-31T03:11:48.076Z,15.43
2022-08-31T03:14:16.249Z,14.97
2022-08-31T03:16:44.274Z,15.60
2022-08-31T03:19:12.437Z,15.53
2022-08-31T03:21:40.571Z,15.73
2022-08-31T03:24:10.423Z,16.17
2022-08-31T03:26:39.015Z,16.57
2022-08-31T03:29:07.361Z,14.90
2022-08-31T03:32:05.064Z,15.33
2022-08-31T03:34:34.495Z,14.50
2022-08-31T03:37:02.730Z,15.40
2022-08-31T03:39:32.427Z,16.10
2022-08-31T03:42:01.629Z,15.07
2022-08-31T03:44:30.019Z,16.00
2022-08-31T03:46:58.159Z,16.53
2022-08-31T03:49:27.760Z,15.67
2022-08-31T03:52:14.311Z,16.07
2022-08-31T03:54:54.183Z,15.53
2022-08-31T03:57:22.403Z,14.47
2022-08-31T03:59:54.050Z,12.53
2022-08-31T04:02:22.629Z,13.37
2022-08-31T04:05:25.818Z,12.63
2022-08-31T04:08:12.513Z,13.67
2022-08-31T04:10:49.677Z,12.57
2022-08-31T04:13:36.728Z,13.23
2022-08-31T04:16:28.151Z,12.63
2022-08-31T04:18:56.229Z,13.70
2022-08-31T04:21:26.845Z,14.53
2022-08-31T04:23:55.721Z,14.23
2022-08-31T04:26:27.447Z,13.63
2022-08-31T04:28:56.340Z,16.00
2022-08-31T04:31:26.528Z,14.60
2022-08-31T04:33:56.404Z,14.10
2022-08-31T04:36:26.120Z,14.10
2022-08-31T04:38:58.653Z,14.33
2022-08-31T04:41:29.495Z,14.67
2022-08-31T04:43:59.461Z,14.60
2022-08-31T04:46:28.321Z,13.27
2022-08-31T04:48:56.696Z,14.70
2022-08-31T04:51:26.696Z,14.83
2022-08-31T04:53:55.273Z,14.30
2022-08-31T04:56:25.155Z,14.03
2022-08-31T04:58:56.571Z,13.77
2022-08-31T05:01:28.172Z,13.90
2022-08-31T05:04:18.428Z,15.43
2022-08-31T05:06:48.103Z,15.00
2022-08-31T05:09:19.501Z,14.70
2022-08-31T05:11:50.005Z,14.60
2022-08-31T05:14:19.648Z,14.07
2022-08-31T05:16:53.396Z,14.50
2022-08-31T05:19:23.498Z,15.10
2022-08-31T05:21:51.544Z,14.77
2022-08-31T05:24:23.128Z,14.63
2022-08-31T05:26:55.947Z,14.50
2022-08-31T05:29:26.375Z,14.37
2022-08-31T05:32:14.170Z,14.87
2022-08-31T05:34:42.367Z,14.40
2022-08-31T05:37:10.385Z,15.20
2022-08-31T05:39:38.818Z,14.13
2022-08-31T05:42:07.553Z,16.80
2022-08-31T05:44:37.653Z,16.97
2022-08-31T05:47:07.907Z,17.50
2022-08-31T05:49:36.313Z,17.27
2022-08-31T05:52:06.303Z,17.07
2022-08-31T05:54:35.641Z,17.70
2022-08-31T05:57:04.411Z,17.37
2022-08-31T05:59:32.632Z,17.90
2022-08-31T06:02:04.324Z,18.50
2022-08-31T06:04:35.533Z,17.33
2022-08-31T06:07:03.657Z,17.63
2022-08-31T06:09:38.999Z,16.63
2022-08-31T06:12:10.732Z,17.47
2022-08-31T06:14:44.769Z,18.50
2022-08-31T06:17:16.221Z,16.90
2022-08-31T06:19:44.394Z,17.67
2022-08-31T06:22:12.985Z,17.13
2022-08-31T06:24:41.205Z,19.73
2022-08-31T06:27:10.217Z,18.53
2022-08-31T06:29:38.771Z,19.53
2022-08-31T06:32:11.001Z,20.03
2022-08-31T06:34:44.233Z,18.80
2022-08-31T06:37:19.402Z,20.40
2022-08-31T06:40:02.957Z,18.20
2022-08-31T06:42:38.571Z,20.17
2022-08-31T06:45:13.163Z,21.33
2022-08-31T06:48:05.011Z,21.17
2022-08-31T06:50:34.543Z,22.47
2022-08-31T06:53:02.608Z,28.07
2022-08-31T06:55:49.050Z,25.00
2022-08-31T06:58:36.093Z,22.53
2022-08-31T07:01:35.282Z,21.20
2022-08-31T07:04:20.722Z,24.03
2022-08-31T07:06:50.501Z,25.00
2022-08-31T07:09:18.969Z,24.83
2022-08-31T07:11:49.007Z,27.40
2022-08-31T07:14:18.889Z,25.33
2022-08-31T07:16:47.377Z,26.47
2022-08-31T07:19:16.296Z,25.40
2022-08-31T07:21:46.876Z,27.80
2022-08-31T07:24:19.124Z,28.10
2022-08-31T07:26:49.041Z,29.03
2022-08-31T07:29:23.379Z,24.40
2022-08-31T07:31:52.106Z,25.97
2022-08-31T07:34:25.867Z,25.23
2022-08-31T07:37:32.718Z,25.70
2022-08-31T07:40:20.246Z,24.90
2022-08-31T07:42:48.378Z,26.03
2022-08-31T07:45:22.664Z,23.67
2022-08-31T07:47:53.956Z,24.47
2022-08-31T07:50:26.808Z,23.43
2022-08-31T07:53:15.231Z,25.77
2022-08-31T07:55:55.502Z,26.03
2022-08-31T07:58:35.082Z,24.70
2022-08-31T08:01:04.190Z,27.30
2022-08-31T08:03:32.180Z,25.33
2022-08-31T08:06:19.698Z,22.73
2022-08-31T08:09:24.550Z,23.40
2022-08-31T08:12:22.447Z,23.83
2022-08-31T08:15:10.864Z,25.20
2022-08-31T08:17:58.176Z,24.37
2022-08-31T08:20:37.345Z,26.97
2022-08-31T08:23:10.866Z,26.67
2022-08-31T08:26:14.013Z,26.77
2022-08-31T08:29:05.539Z,29.27
2022-08-31T08:31:35.604Z,31.07
2022-08-31T08:34:03.831Z,34.80
2022-08-31T08:36:35.785Z,32.17
2022-08-31T08:39:05.948Z,35.73
2022-08-31T08:41:35.932Z,31.90
2022-08-31T08:44:09.117Z,33.23
2022-08-31T08:46:41.620Z,32.30
2022-08-31T08:49:19.242Z,35.33
2022-08-31T08:51:52.893Z,37.53
2022-08-31T08:54:31.847Z,34.03
2022-08-31T08:57:01.661Z,35.63
2022-08-31T08:59:31.500Z,35.67
2022-08-31T09:02:07.015Z,36.93
2022-08-31T09:04:50.970Z,34.07
2022-08-31T09:08:10.226Z,35.53
2022-08-31T09:10:43.067Z,35.90
2022-08-31T09:13:19.756Z,38.70
2022-08-31T09:16:02.161Z,42.90
2022-08-31T09:18:44.766Z,44.60
2022-08-31T09:21:22.268Z,51.60
2022-08-31T09:24:01.464Z,65.33
2022-08-31T09:26:35.686Z,68.33
2022-08-31T09:29:14.060Z,70.20
2022-08-31T09:31:46.475Z,70.57
2022-08-31T09:34:28.488Z,80.53
2022-08-31T09:37:16.255Z,73.83
2022-08-31T09:39:47.665Z,68.43
2022-08-31T09:42:31.165Z,74.73
2022-08-31T09:45:02.354Z,78.97
2022-08-31T09:47:48.291Z,82.43
2022-08-31T09:50:36.692Z,76.77
2022-08-31T09:53:29.567Z,80.20
2022-08-31T09:56:19.840Z,84.57
2022-08-31T09:58:50.762Z,74.33
2022-08-31T10:01:27.150Z,83.40
2022-08-31T10:04:17.082Z,76.00
2022-08-31T10:06:49.750Z,78.93
2022-08-31T10:09:28.004Z,91.27
2022-08-31T10:11:59.917Z,81.40
2022-08-31T10:14:36.181Z,81.53
2022-08-31T10:17:10.917Z,79.47
2022-08-31T10:19:54.393Z,74.83
2022-08-31T10:22:28.242Z,76.53
2022-08-31T10:25:12.730Z,76.57
2022-08-31T10:27:44.976Z,76.90
2022-08-31T10:30:21.527Z,77.77
2022-08-31T10:32:54.912Z,78.73
2022-08-31T10:35:28.335Z,76.73
2022-08-31T10:38:08.271Z,76.57
2022-08-31T10:40:43.773Z,72.43
2022-08-31T10:43:17.660Z,72.87
2022-08-31T10:45:49.031Z,65.87
2022-08-31T10:48:18.227Z,70.77
2022-08-31T10:50:53.578Z,67.70
2022-08-31T10:53:40.276Z,63.67
2022-08-31T10:56:14.882Z,66.60
2022-08-31T10:58:58.437Z,67.13
2022-08-31T11:01:30.386Z,70.27
2022-08-31T11:04:23.174Z,61.07
2022-08-31T11:06:57.587Z,58.77
2022-08-31T11:09:27.558Z,60.27
2022-08-31T11:12:07.030Z,57.77
2022-08-31T11:14:58.460Z,55.70
2022-08-31T11:17:34.712Z,61.70
2022-08-31T11:20:26.747Z,64.27
2022-08-31T11:23:07.990Z,69.43
2022-08-31T11:26:02.987Z,60.37
2022-08-31T11:28:34.130Z,65.00
2022-08-31T11:31:03.860Z,68.40
2022-08-31T11:33:32.047Z,81.47
2022-08-31T11:36:07.210Z,72.17
2022-08-31T11:39:26.784Z,71.40
2022-08-31T11:41:55.361Z,69.10
2022-08-31T11:44:47.317Z,78.10
2022-08-31T11:47:35.560Z,68.97
2022-08-31T11:50:06.073Z,66.60
2022-08-31T11:52:48.075Z,71.53
2022-08-31T11:55:22.467Z,68.30
2022-08-31T11:58:11.501Z,66.33
2022-08-31T12:00:46.388Z,64.30
2022-08-31T12:03:50.495Z,67.07
2022-08-31T12:07:07.506Z,64.67
2022-08-31T12:10:09.368Z,62.57
2022-08-31T12:13:09.398Z,64.57
2022-08-31T12:15:49.739Z,62.00
2022-08-31T12:18:30.897Z,67.97
2022-08-31T12:21:20.916Z,66.97
2022-08-31T12:23:58.681Z,64.47
2022-08-31T12:26:44.873Z,72.37
2022-08-31T12:29:27.428Z,88.17
2022-08-31T12:32:08.730Z,90.30
2022-08-31T12:34:40.660Z,96.67
2022-08-31T12:37:26.456Z,91.50
2022-08-31T12:40:14.344Z,87.93
2022-08-31T12:42:48.538Z,89.57
2022-08-31T12:45:16.981Z,94.73
2022-08-31T12:47:53.138Z,98.27
2022-08-31T12:50:27.864Z,93.13
2022-08-31T12:53:23.550Z,91.87
2022-08-31T12:55:55.525Z,87.70
2022-08-31T12:58:51.014Z,86.00
2022-08-31T13:01:22.515Z,89.50
2022-08-31T13:03:55.209Z,90.83
2022-08-31T13:06:28.676Z,106.20
2022-08-31T13:08:58.931Z,92.33
2022-08-31T13:11:35.119Z,92.60
2022-08-31T13:14:14.729Z,99.50
2022-08-31T13:16:45.261Z,98.13
2022-08-31T13:19:25.823Z,97.37
2022-08-31T13:21:57.321Z,95.63
2022-08-31T13:24:28.982Z,92.30
2022-08-31T13:27:12.816Z,95.87
2022-08-31T13:29:47.816Z,94.13
2022-08-31T13:32:30.788Z,91.23
2022-08-31T13:35:04.352Z,92.20
2022-08-31T13:37:36.005Z,94.00
2022-08-31T13:40:09.894Z,85.80
2022-08-31T13:42:41.377Z,89.77
2022-08-31T13:45:26.443Z,90.83
2022-08-31T13:47:58.215Z,92.47
2022-08-31T13:50:32.957Z,96.73
2022-08-31T13:53:36.072Z,91.93
2022-08-31T13:55:51.366Z,85.87
2022-08-31T13:58:27.667Z,85.43
2022-08-31T14:01:19.913Z,85.53
2022-08-31T14:03:57.226Z,77.70
2022-08-31T14:06:28.082Z,81.07
2022-08-31T14:09:00.254Z,79.60
2022-08-31T14:11:29.097Z,76.27
2022-08-31T14:14:05.880Z,84.10
2022-08-31T14:16:36.247Z,83.53
2022-08-31T14:19:05.079Z,82.90
2022-08-31T14:21:37.286Z,83.33
2022-08-31T14:24:07.821Z,88.57
2022-08-31T14:26:37.425Z,82.70
2022-08-31T14:29:10.220Z,88.20
2022-08-31T14:31:44.056Z,93.77
2022-08-31T14:34:22.587Z,88.20
2022-08-31T14:36:55.562Z,96.60
2022-08-31T14:39:26.736Z,91.67
2022-08-31T14:41:56.808Z,91.80
2022-08-31T14:44:27.790Z,94.17
2022-08-31T14:46:55.973Z,91.83
2022-08-31T14:49:24.856Z,102.53
2022-08-31T14:51:55.171Z,99.47
2022-08-31T14:54:24.822Z,104.20
2022-08-31T14:56:54.501Z,107.13
2022-08-31T14:59:22.744Z,116.90
2022-08-31T15:01:51.056Z,112.87
2022-08-31T15:04:21.692Z,116.57
2022-08-31T15:06:55.088Z,108.60
2022-08-31T15:09:24.909Z,109.33
2022-08-31T15:11:52.996Z,104.30
2022-08-31T15:14:22.416Z,119.77
2022-08-31T15:16:51.335Z,121.60
2022-08-31T15:19:19.494Z,119.40
2022-08-31T15:21:52.752Z,116.37
2022-08-31T15:24:28.539Z,117.03
2022-08-31T15:26:59.974Z,116.50
2022-08-31T15:29:30.418Z,119.37
2022-08-31T15:31:59.892Z,117.87
2022-08-31T15:34:31.076Z,113.30
2022-08-31T15:37:02.214Z,115.33
2022-08-31T15:39:35.617Z,120.83
2022-08-31T15:42:04.964Z,121.57
2022-08-31T15:44:33.554Z,122.33
2022-08-31T15:47:21.197Z,126.83
2022-08-31T15:49:51.258Z,117.53
2022-08-31T15:52:20.398Z,118.33
2022-08-31T15:54:50.431Z,126.70
2022-08-31T15:57:18.965Z,118.87
2022-08-31T15:59:47.218Z,127.63
2022-08-31T16:02:20.223Z,134.10
2022-08-31T16:04:51.228Z,129.90
2022-08-31T16:07:22.608Z,130.37
2022-08-31T16:09:52.162Z,136.57
2022-08-31T16:12:22.379Z,126.23
2022-08-31T16:14:51.702Z,133.03
2022-08-31T16:17:20.181Z,132.83
2022-08-31T16:19:48.351Z,130.90
2022-08-31T16:22:16.931Z,134.70
2022-08-31T16:24:49.913Z,136.80
2022-08-31T16:27:20.812Z,137.33
2022-08-31T16:29:50.720Z,135.23
2022-08-31T16:32:19.197Z,143.37
2022-08-31T16:34:47.285Z,139.97
2022-08-31T16:37:15.375Z,148.27
2022-08-31T16:39:46.922Z,141.47
2022-08-31T16:42:15.710Z,142.37
2022-08-31T16:44:46.970Z,143.77
2022-08-31T16:47:20.111Z,143.27
2022-08-31T16:49:47.728Z,142.87
2022-08-31T16:52:27.459Z,152.70
2022-08-31T16:54:57.017Z,148.00
2022-08-31T16:57:27.489Z,144.30
2022-08-31T17:00:03.005Z,142.10
2022-08-31T17:02:33.255Z,146.70
2022-08-31T17:05:04.723Z,142.57
2022-08-31T17:07:32.996Z,138.67
2022-08-31T17:10:03.987Z,136.97
2022-08-31T17:12:32.730Z,152.40
2022-08-31T17:15:03.650Z,145.93
2022-08-31T17:17:33.132Z,145.97
2022-08-31T17:20:01.331Z,143.63
2022-08-31T17:22:33.641Z,151.53
2022-08-31T17:25:04.690Z,147.43
2022-08-31T17:27:34.370Z,138.97
2022-08-31T17:30:07.317Z,152.97
2022-08-31T17:32:44.957Z,138.40
2022-08-31T17:35:18.194Z,138.13
2022-08-31T17:37:47.791Z,144.83
2022-08-31T17:40:16.878Z,138.03
2022-08-31T17:42:45.523Z,133.90
2022-08-31T17:45:15.580Z,142.60
2022-08-31T17:47:43.652Z,136.00
2022-08-31T17:50:13.935Z,133.27
2022-08-31T17:52:42.167Z,132.27
2022-08-31T17:55:10.592Z,127.77
2022-08-31T17:57:40.659Z,132.30
2022-08-31T18:00:10.338Z,134.17
2022-08-31T18:02:39.824Z,126.87
2022-08-31T18:05:12.183Z,136.23
2022-08-31T18:07:40.843Z,126.07
2022-08-31T18:10:10.857Z,136.30
2022-08-31T18:12:41.222Z,125.33
2022-08-31T18:15:10.932Z,124.17
2022-08-31T18:17:40.790Z,127.43
2022-08-31T18:20:10.737Z,128.83
2022-08-31T18:22:39.888Z,126.37
2022-08-31T18:25:08.607Z,124.80
2022-08-31T18:27:36.783Z,129.80
2022-08-31T18:30:05.957Z,131.80
2022-08-31T18:32:36.107Z,129.17
2022-08-31T18:35:14.218Z,120.67
2022-08-31T18:37:42.724Z,128.03
2022-08-31T18:40:29.490Z,119.83
2022-08-31T18:43:15.036Z,115.43
2022-08-31T18:45:43.195Z,113.40
2022-08-31T18:48:24.916Z,112.00
2022-08-31T18:50:59.121Z,108.13
2022-08-31T18:53:30.331Z,116.03
2022-08-31T18:56:00.302Z,111.27
2022-08-31T18:58:29.950Z,116.03
2022-08-31T19:00:58.856Z,116.70
2022-08-31T19:03:27.762Z,117.17
2022-08-31T19:05:57.952Z,115.37
2022-08-31T19:08:26.995Z,118.70
2022-08-31T19:10:57.960Z,113.13
2022-08-31T19:13:29.891Z,121.70
2022-08-31T19:16:01.569Z,111.10
2022-08-31T19:18:31.930Z,112.60
2022-08-31T19:21:11.699Z,110.03
2022-08-31T19:23:39.828Z,104.23
2022-08-31T19:26:08.109Z,115.03
2022-08-31T19:28:36.220Z,106.83
2022-08-31T19:31:06.422Z,108.03
2022-08-31T19:33:34.500Z,97.10
2022-08-31T19:36:04.801Z,109.17
2022-08-31T19:38:32.977Z,104.37
2022-08-31T19:41:01.472Z,116.53
2022-08-31T19:43:53.689Z,106.40
2022-08-31T19:46:21.208Z,106.33
2022-08-31T19:48:50.642Z,105.30
2022-08-31T19:51:22.494Z,111.27
2022-08-31T19:53:51.698Z,104.87
2022-08-31T19:56:22.134Z,107.93
2022-08-31T19:58:52.637Z,101.40
2022-08-31T20:01:28.260Z,97.70
2022-08-31T20:03:57.159Z,98.77
2022-08-31T20:06:26.727Z,100.90
2022-08-31T20:08:55.475Z,97.53
2022-08-31T20:11:26.532Z,102.57
2022-08-31T20:13:55.358Z,103.87
2022-08-31T20:16:28.539Z,98.70
2022-08-31T20:19:04.042Z,99.30
2022-08-31T20:21:35.255Z,98.53
2022-08-31T20:24:07.500Z,102.33
2022-08-31T20:26:47.472Z,102.87
2022-08-31T20:29:21.390Z,99.97
2022-08-31T20:31:51.385Z,99.47
2022-08-31T20:34:21.860Z,102.10
2022-08-31T20:36:58.469Z,106.77
2022-08-31T20:39:30.821Z,105.57
2022-08-31T20:42:00.551Z,110.53
2022-08-31T20:44:30.986Z,108.33
2022-08-31T20:47:18.006Z,113.87
2022-08-31T20:49:47.950Z,113.43
2022-08-31T20:52:17.867Z,108.53
2022-08-31T20:54:51.990Z,114.53
2022-08-31T20:57:27.399Z,113.77
2022-08-31T20:59:58.349Z,113.60
2022-08-31T21:02:27.186Z,120.30
2022-08-31T21:04:56.985Z,119.13
2022-08-31T21:07:27.174Z,113.60
2022-08-31T21:09:55.449Z,113.97
2022-08-31T21:12:23.930Z,117.57
2022-08-31T21:14:55.451Z,111.93
2022-08-31T21:17:25.182Z,121.93
2022-08-31T21:19:57.839Z,118.87
2022-08-31T21:22:27.721Z,122.57
2022-08-31T21:24:59.753Z,138.27
2022-08-31T21:27:29.561Z,137.37
2022-08-31T21:29:57.661Z,138.77
2022-08-31T21:32:25.718Z,144.43
2022-08-31T21:34:56.717Z,141.87
2022-08-31T21:37:24.861Z,152.13
2022-08-31T21:39:57.784Z,148.67
2022-08-31T21:42:26.164Z,149.93
2022-08-31T21:44:54.335Z,152.93
2022-08-31T21:47:22.356Z,159.03
2022-08-31T21:49:53.398Z,152.07
2022-08-31T21:52:21.568Z,156.67
2022-08-31T21:54:49.551Z,156.50
2022-08-31T21:57:19.017Z,148.70
2022-08-31T21:59:47.187Z,151.60
2022-08-31T22:02:15.788Z,149.83
2022-08-31T22:04:45.079Z,153.37
2022-08-31T22:07:14.745Z,167.50
2022-08-31T22:09:43.225Z,159.90
2022-08-31T22:12:15.024Z,155.10
2022-08-31T22:14:45.039Z,155.97
2022-08-31T22:17:14.726Z,144.60
2022-08-31T22:19:43.000Z,155.47
2022-08-31T22:22:13.207Z,167.53
2022-08-31T22:24:42.698Z,158.77
2022-08-31T22:27:11.936Z,165.47
2022-08-31T22:29:41.487Z,158.60
2022-08-31T22:32:12.984Z,159.20
2022-08-31T22:34:42.330Z,165.37
2022-08-31T22:37:11.709Z,164.87
2022-08-31T22:39:42.347Z,159.33
2022-08-31T22:42:11.790Z,159.23
2022-08-31T22:44:40.576Z,166.00
2022-08-31T22:47:10.150Z,164.57
2022-08-31T22:49:38.269Z,172.03
2022-08-31T22:52:07.311Z,164.63
2022-08-31T22:54:36.581Z,162.63
2022-08-31T22:57:05.103Z,155.33
2022-08-31T22:59:33.126Z,155.20
2022-08-31T23:02:03.253Z,157.20
2022-08-31T23:04:34.505Z,149.63
2022-08-31T23:07:03.660Z,152.23
2022-08-31T23:09:33.686Z,152.67
2022-08-31T23:12:03.828Z,148.50
2022-08-31T23:14:33.119Z,149.33
2022-08-31T23:17:02.712Z,151.10
2022-08-31T23:19:36.748Z,155.47
2022-08-31T23:22:07.590Z,145.13
2022-08-31T23:24:38.080Z,143.00
2022-08-31T23:27:10.292Z,140.53
2022-08-31T23:29:41.123Z,141.80
2022-08-31T23:32:13.388Z,138.00
2022-08-31T23:34:43.042Z,140.37
2022-08-31T23:37:12.005Z,129.37
2022-08-31T23:39:43.328Z,136.17
2022-08-31T23:42:12.367Z,136.77
2022-08-31T23:44:41.779Z,134.67
2022-08-31T23:47:10.978Z,139.07
2022-08-31T23:49:40.397Z,129.57
2022-08-31T23:52:11.838Z,136.63
2022-08-31T23:54:41.204Z,125.90
2022-08-31T23:57:29.254Z,136.80
